Time;durP1;ratioP1;P1;durP2;ratioP2;P2;SDS_P1;SDS_P2;PMS_P1;PMS_P2;Temp;Humidity;BMP_temperature;BMP_pressure;BME280_temperature;BME280_humidity;BME280_pressure;Samples;Min_cycle;Max_cycle;Signal;HPM_P1;HPM_P2
2023/12/12 00:02:23;;;;;;;;;;;;;;;5.26;100.00;95993.06;5066164;28;19967;-73
2023/12/12 00:04:49;;;;;;;;;;;;;;;5.24;100.00;95993.25;5084024;28;19972;-72
2023/12/12 00:07:15;;;;;;;;;;;;;;;5.22;100.00;95997.84;5084216;28;19946;-73
2023/12/12 00:09:40;;;;;;;;;;;;;;;5.23;100.00;95999.47;5083962;28;19993;-73
2023/12/12 00:12:06;;;;;;;;;;;;;;;5.24;100.00;96001.06;5084657;28;19956;-72
2023/12/12 00:14:32;;;;;;;;;;;;;;;5.25;100.00;95991.47;5084360;28;19970;-73
2023/12/12 00:16:58;;;;;;;;;;;;;;;5.27;100.00;95999.84;5083998;28;19953;-72
2023/12/12 00:19:24;;;;;;;;;;;;;;;5.27;100.00;95995.47;5082814;28;19992;-72
2023/12/12 00:21:50;;;;;;;;;;;;;;;5.31;100.00;96003.69;5082436;28;19960;-73
2023/12/12 00:24:16;;;;;;;;;;;;;;;5.31;100.00;96003.69;5083769;28;20162;-74
2023/12/12 00:26:41;;;;;;;;;;;;;;;5.32;100.00;95994.91;5084116;28;20234;-70
2023/12/12 00:29:07;;;;;;;;;;;;;;;5.34;100.00;95998.09;5083425;28;20255;-70
2023/12/12 00:31:33;;;;;;;;;;;;;;;5.33;100.00;96003.50;5083829;28;20252;-70
2023/12/12 00:33:59;;;;;;;;;;;;;;;5.33;100.00;96008.69;5083937;28;20042;-70
2023/12/12 00:36:25;;;;;;;;;;;;;;;5.31;100.00;96006.28;5082270;28;19966;-71
2023/12/12 00:38:50;;;;;;;;;;;;;;;5.32;100.00;95999.31;5082555;28;20005;-70
2023/12/12 00:41:16;;;;;;;;;;;;;;;5.34;100.00;96005.09;5083578;28;19963;-74
2023/12/12 00:43:42;;;;;;;;;;;;;;;5.34;100.00;96003.31;5083659;28;19971;-73
2023/12/12 00:46:10;;;;;;;;;;;;;;;5.36;100.00;96006.50;5082060;28;20272;-73
2023/12/12 00:48:36;;;;;;;;;;;;;;;5.38;100.00;96011.53;5082153;28;19960;-73
2023/12/12 00:51:01;;;;;;;;;;;;;;;5.36;100.00;96014.31;5083761;28;19964;-73
2023/12/12 00:53:27;;;;;;;;;;;;;;;5.36;100.00;96011.72;5083685;28;20002;-73
2023/12/12 00:55:53;;;;;;;;;;;;;;;5.37;100.00;96015.09;5081983;28;19963;-72
2023/12/12 00:58:19;;;;;;;;;;;;;;;5.36;100.00;96001.31;5083039;28;20126;-73
2023/12/12 01:00:45;;;;;;;;;;;;;;;5.36;100.00;96005.72;5082251;28;20002;-70
2023/12/12 01:03:11;;;;;;;;;;;;;;;5.36;100.00;96019.50;5084208;28;20234;-72
2023/12/12 01:05:36;;;;;;;;;;;;;;;5.38;100.00;96011.53;5084194;28;20234;-72
2023/12/12 01:08:02;;;;;;;;;;;;;;;5.37;100.00;96015.09;5085290;28;20257;-72
2023/12/12 01:10:28;;;;;;;;;;;;;;;5.37;100.00;96002.09;5086267;28;19968;-72
2023/12/12 01:12:54;;;;;;;;;;;;;;;5.35;100.00;96012.69;5085724;28;19967;-72
2023/12/12 01:15:20;;;;;;;;;;;;;;;5.34;100.00;96011.09;5086667;28;20003;-72
2023/12/12 01:17:46;;;;;;;;;;;;;;;5.32;100.00;96013.09;5086600;28;19961;-73
2023/12/12 01:20:12;;;;;;;;;;;;;;;5.31;100.00;96013.28;5086666;28;19952;-70
2023/12/12 01:22:37;;;;;;;;;;;;;;;5.28;100.00;96015.28;5086532;28;20078;-72
2023/12/12 01:25:04;;;;;;;;;;;;;;;5.27;100.00;96005.06;5085243;28;19980;-72
2023/12/12 01:27:29;;;;;;;;;;;;;;;5.25;100.00;96022.69;5086191;28;19960;-73
2023/12/12 01:29:55;;;;;;;;;;;;;;;5.22;100.00;96003.06;5087006;28;19953;-73
2023/12/12 01:32:21;;;;;;;;;;;;;;;5.19;100.00;96000.84;5086676;28;20202;-72
2023/12/12 01:34:47;;;;;;;;;;;;;;;5.17;100.00;95989.84;5085347;28;20034;-73
2023/12/12 01:37:13;;;;;;;;;;;;;;;5.13;100.00;95978.25;5085093;28;19988;-74
2023/12/12 01:39:39;;;;;;;;;;;;;;;5.09;100.00;95983.00;5086097;28;20289;-69
2023/12/12 01:42:04;;;;;;;;;;;;;;;5.06;100.00;95988.63;5084733;28;19996;-69
2023/12/12 01:44:30;;;;;;;;;;;;;;;5.06;100.00;95999.00;5086445;28;20053;-69
2023/12/12 01:46:56;;;;;;;;;;;;;;;5.04;100.00;96000.19;5085094;28;19950;-69
2023/12/12 01:49:22;;;;;;;;;;;;;;;5.03;100.00;95998.59;5086049;28;19984;-69
2023/12/12 01:51:48;;;;;;;;;;;;;;;5.01;100.00;96003.19;5085624;28;19953;-70
2023/12/12 01:54:16;;;;;;;;;;;;;;;4.98;100.00;95995.78;5086069;28;19962;-73
2023/12/12 01:56:45;;;;;;;;;;;;;;;4.95;100.00;95988.34;5086274;28;19958;-69
2023/12/12 01:59:11;;;;;;;;;;;;;;;4.91;100.00;95981.94;5086214;28;19968;-69
2023/12/12 02:01:37;;;;;;;;;;;;;;;4.87;100.00;95969.34;5085581;28;19958;-69
2023/12/12 02:04:04;;;;;;;;;;;;;;;4.86;100.00;95962.53;5086199;28;19964;-70
2023/12/12 02:06:30;;;;;;;;;;;;;;;4.85;100.00;95975.72;5085567;28;19947;-69
2023/12/12 02:08:56;;;;;;;;;;;;;;;4.82;100.00;95976.09;5085432;28;20188;-69
2023/12/12 02:11:22;;;;;;;;;;;;;;;4.80;100.00;95975.50;5085998;28;19962;-69
2023/12/12 02:13:48;;;;;;;;;;;;;;;4.77;100.00;95975.91;5084193;28;19958;-74
2023/12/12 02:16:14;;;;;;;;;;;;;;;4.77;100.00;95965.50;5085305;28;20124;-73
2023/12/12 02:18:40;;;;;;;;;;;;;;;4.72;100.00;95960.06;5085391;28;20158;-73
2023/12/12 02:21:06;;;;;;;;;;;;;;;4.70;100.00;95956.88;5085399;28;19963;-72
2023/12/12 02:23:32;;;;;;;;;;;;;;;4.66;100.00;95954.66;5085409;28;19968;-75
2023/12/12 02:26:02;;;;;;;;;;;;;;;4.64;100.00;95958.44;5067390;28;19958;-73
2023/12/12 02:28:28;;;;;;;;;;;;;;;4.59;100.00;95953.81;5085146;28;19959;-73
2023/12/12 02:30:54;;;;;;;;;;;;;;;4.59;100.00;95953.81;5084066;28;19963;-73
2023/12/12 02:33:20;;;;;;;;;;;;;;;4.56;100.00;95954.22;5085031;28;19970;-71
2023/12/12 02:35:46;;;;;;;;;;;;;;;4.56;100.00;95956.81;5083761;28;20133;-70
2023/12/12 02:38:13;;;;;;;;;;;;;;;4.57;100.00;95965.41;5084937;28;19955;-69
2023/12/12 02:40:39;;;;;;;;;;;;;;;4.56;100.00;95969.00;5084883;28;19954;-69
2023/12/12 02:43:05;;;;;;;;;;;;;;;4.57;100.00;95963.59;5085013;28;20044;-69
2023/12/12 02:45:31;;;;;;;;;;;;;;;4.59;100.00;95966.00;5085146;28;19963;-69
2023/12/12 02:47:57;;;;;;;;;;;;;;;4.59;100.00;95966.00;5085045;28;19956;-69
2023/12/12 02:50:22;;;;;;;;;;;;;;;4.59;100.00;95964.19;5085224;28;19951;-72
2023/12/12 02:52:48;;;;;;;;;;;;;;;4.60;100.00;95962.41;5085164;28;19956;-71
2023/12/12 02:55:14;;;;;;;;;;;;;;;4.60;100.00;95963.22;5083366;28;19979;-71
2023/12/12 02:57:40;;;;;;;;;;;;;;;4.60;100.00;95963.22;5084866;28;19959;-71
2023/12/12 03:00:06;;;;;;;;;;;;;;;4.61;100.00;95972.59;5084876;28;19956;-71
2023/12/12 03:02:33;;;;;;;;;;;;;;;4.61;100.00;95970.00;5085163;28;20253;-72
2023/12/12 03:04:59;;;;;;;;;;;;;;;4.60;100.00;95958.03;5084792;28;20253;-71
2023/12/12 03:07:25;;;;;;;;;;;;;;;4.62;100.00;95970.81;5084681;28;20282;-72
2023/12/12 03:09:50;;;;;;;;;;;;;;;4.61;100.00;95971.81;5084919;28;20070;-72
2023/12/12 03:12:16;;;;;;;;;;;;;;;4.57;100.00;95966.19;5084701;28;20237;-72
2023/12/12 03:14:42;;;;;;;;;;;;;;;4.56;100.00;95959.41;5083385;28;19961;-71
2023/12/12 03:17:08;;;;;;;;;;;;;;;4.56;100.00;95950.81;5083324;28;19961;-71
2023/12/12 03:19:34;;;;;;;;;;;;;;;4.55;100.00;95944.00;5084516;28;20259;-71
2023/12/12 03:22:00;;;;;;;;;;;;;;;4.56;100.00;95949.03;5084359;28;19952;-71
2023/12/12 03:24:26;;;;;;;;;;;;;;;4.58;100.00;95943.66;5082907;28;20002;-71
2023/12/12 03:26:52;;;;;;;;;;;;;;;4.58;100.00;95947.03;5083805;28;20119;-72
2023/12/12 03:29:18;;;;;;;;;;;;;;;4.60;100.00;95944.22;5084120;28;20024;-68
2023/12/12 03:31:44;;;;;;;;;;;;;;;4.60;100.00;95942.44;5084435;28;19973;-69
2023/12/12 03:34:09;;;;;;;;;;;;;;;4.60;100.00;95939.84;5082874;28;19965;-69
2023/12/12 03:36:35;;;;;;;;;;;;;;;4.60;100.00;95934.66;5084470;28;19946;-70
2023/12/12 03:39:01;;;;;;;;;;;;;;;4.59;100.00;95921.84;5084355;28;19978;-69
2023/12/12 03:41:28;;;;;;;;;;;;;;;4.58;100.00;95915.06;5083666;28;19950;-69
2023/12/12 03:43:53;;;;;;;;;;;;;;;4.58;100.00;95915.06;5083991;28;20281;-69
2023/12/12 03:46:20;;;;;;;;;;;;;;;4.58;100.00;95915.88;5082908;28;19966;-70
2023/12/12 03:48:46;;;;;;;;;;;;;;;4.57;100.00;95900.47;5084180;28;19962;-73
2023/12/12 03:51:12;;;;;;;;;;;;;;;4.55;100.00;95892.06;5083933;28;19952;-73
2023/12/12 03:53:40;;;;;;;;;;;;;;;4.54;100.00;95893.88;5084591;28;19962;-74
2023/12/12 03:56:07;;;;;;;;;;;;;;;4.56;100.00;95888.50;5084076;28;19953;-73
2023/12/12 03:58:32;;;;;;;;;;;;;;;4.55;100.00;95877.28;5082724;28;19990;-75
2023/12/12 04:00:58;;;;;;;;;;;;;;;4.56;100.00;95881.50;5082641;28;20247;-74
2023/12/12 04:03:24;;;;;;;;;;;;;;;4.55;100.00;95879.88;5083982;28;19968;-72
2023/12/12 04:05:50;;;;;;;;;;;;;;;4.56;100.00;95883.31;5084199;28;20128;-74
2023/12/12 04:08:16;;;;;;;;;;;;;;;4.55;100.00;95885.09;5082714;28;19968;-73
2023/12/12 04:10:42;;;;;;;;;;;;;;;4.57;100.00;95883.09;5083870;28;19962;-73
2023/12/12 04:13:08;;;;;;;;;;;;;;;4.58;100.00;95883.91;5083453;28;19953;-75
2023/12/12 04:15:34;;;;;;;;;;;;;;;4.58;100.00;95881.31;5082519;28;20235;-73
2023/12/12 04:18:00;;;;;;;;;;;;;;;4.56;100.00;95876.31;5082286;28;19954;-73
2023/12/12 04:20:26;;;;;;;;;;;;;;;4.57;100.00;95880.50;5083549;28;19951;-74
2023/12/12 04:22:51;;;;;;;;;;;;;;;4.56;100.00;95876.31;5083201;28;20235;-69
2023/12/12 04:25:19;;;;;;;;;;;;;;;4.56;100.00;95872.91;5083876;28;20126;-73
2023/12/12 04:27:45;;;;;;;;;;;;;;;4.54;100.00;95880.91;5082212;28;19967;-73
2023/12/12 04:30:11;;;;;;;;;;;;;;;4.53;100.00;95873.28;5082390;28;19963;-73
2023/12/12 04:32:37;;;;;;;;;;;;;;;4.52;100.00;95889.88;5083710;28;19959;-74
2023/12/12 04:35:08;;;;;;;;;;;;;;;4.52;100.00;95879.50;5082669;28;19960;-73
2023/12/12 04:37:34;;;;;;;;;;;;;;;4.52;100.00;95876.91;5083776;28;19974;-75
2023/12/12 04:40:01;;;;;;;;;;;;;;;4.52;100.00;95872.50;5083828;28;19998;-69
2023/12/12 04:42:26;;;;;;;;;;;;;;;4.52;100.00;95871.72;5087124;28;19960;-72
2023/12/12 04:44:52;;;;;;;;;;;;;;;4.52;100.00;95859.50;5087356;28;19992;-74
2023/12/12 04:47:18;;;;;;;;;;;;;;;4.51;100.00;95857.09;5087450;28;19964;-74
2023/12/12 04:49:44;;;;;;;;;;;;;;;4.53;100.00;95862.91;5087511;28;19957;-74
2023/12/12 04:52:10;;;;;;;;;;;;;;;4.54;100.00;95867.13;5086696;28;19960;-74
2023/12/12 04:54:36;;;;;;;;;;;;;;;4.54;100.00;95860.13;5087306;28;19962;-74
2023/12/12 04:57:02;;;;;;;;;;;;;;;4.56;100.00;95852.16;5087276;28;19960;-74
2023/12/12 04:59:28;;;;;;;;;;;;;;;4.57;100.00;95851.13;5087216;28;19958;-74
2023/12/12 05:01:54;;;;;;;;;;;;;;;4.57;100.00;95844.16;5085367;28;19972;-73
2023/12/12 05:04:20;;;;;;;;;;;;;;;4.58;100.00;95835.38;5086756;28;19956;-73
2023/12/12 05:06:46;;;;;;;;;;;;;;;4.60;100.00;95859.34;5086599;28;19955;-73
2023/12/12 05:09:12;;;;;;;;;;;;;;;4.59;100.00;95862.13;5086579;28;20156;-73
2023/12/12 05:11:38;;;;;;;;;;;;;;;4.58;100.00;95853.56;5085895;28;19960;-73
2023/12/12 05:14:06;;;;;;;;;;;;;;;4.55;100.00;95848.72;5086548;28;19951;-73
2023/12/12 05:16:32;;;;;;;;;;;;;;;4.55;100.00;95858.31;5086851;28;19965;-69
2023/12/12 05:18:58;;;;;;;;;;;;;;;4.54;100.00;95856.72;5086553;28;19957;-70
2023/12/12 05:21:25;;;;;;;;;;;;;;;4.53;100.00;95852.53;5086809;28;19955;-69
2023/12/12 05:23:51;;;;;;;;;;;;;;;4.50;100.00;95848.53;5086576;28;19968;-69
2023/12/12 05:26:20;;;;;;;;;;;;;;;4.49;100.00;95852.09;5087017;28;19956;-70
2023/12/12 05:28:46;;;;;;;;;;;;;;;4.47;100.00;95844.53;5086763;28;20224;-69
2023/12/12 05:31:12;;;;;;;;;;;;;;;4.47;100.00;95839.34;5086072;28;20244;-69
2023/12/12 05:33:38;;;;;;;;;;;;;;;4.47;100.00;95839.34;5086607;28;19947;-69
2023/12/12 05:36:04;;;;;;;;;;;;;;;4.48;100.00;95832.34;5085382;28;19964;-70
2023/12/12 05:38:30;;;;;;;;;;;;;;;4.48;100.00;95838.31;5086465;28;19962;-71
2023/12/12 05:40:56;;;;;;;;;;;;;;;4.48;100.00;95840.91;5085192;28;19963;-71
2023/12/12 05:43:22;;;;;;;;;;;;;;;4.48;100.00;95837.53;5086344;28;19957;-71
2023/12/12 05:45:48;;;;;;;;;;;;;;;4.48;100.00;95840.13;5086326;28;19955;-70
2023/12/12 05:48:14;;;;;;;;;;;;;;;4.50;100.00;95842.53;5085145;28;19964;-71
2023/12/12 05:50:40;;;;;;;;;;;;;;;4.50;100.00;95838.13;5086203;28;19960;-70
2023/12/12 05:53:07;;;;;;;;;;;;;;;4.50;100.00;95834.75;5085868;28;19961;-70
2023/12/12 05:55:32;;;;;;;;;;;;;;;4.50;100.00;95827.75;5086239;28;20035;-73
2023/12/12 05:57:58;;;;;;;;;;;;;;;4.51;100.00;95828.53;5085597;28;19964;-73
2023/12/12 06:00:27;;;;;;;;;;;;;;;4.51;100.00;95842.31;5068029;28;19953;-72
2023/12/12 06:02:54;;;;;;;;;;;;;;;4.54;100.00;95838.56;5085455;28;20118;-73
2023/12/12 06:05:20;;;;;;;;;;;;;;;4.57;100.00;95830.38;5086240;28;20250;-73
2023/12/12 06:07:46;;;;;;;;;;;;;;;4.58;100.00;95843.16;5086235;28;19964;-73
2023/12/12 06:10:12;;;;;;;;;;;;;;;4.60;100.00;95850.72;5085127;28;19962;-73
2023/12/12 06:12:37;;;;;;;;;;;;;;;4.60;100.00;95827.38;5085058;28;20202;-69
2023/12/12 06:15:07;;;;;;;;;;;;;;;4.60;100.00;95829.97;5086118;28;20184;-72
2023/12/12 06:17:35;;;;;;;;;;;;;;;4.60;100.00;95828.19;5084782;28;20249;-71
2023/12/12 06:20:02;;;;;;;;;;;;;;;4.61;100.00;95828.97;5084916;28;19965;-71
2023/12/12 06:22:28;;;;;;;;;;;;;;;4.60;100.00;95825.59;5084701;28;19956;-71
2023/12/12 06:24:54;;;;;;;;;;;;;;;4.61;100.00;95819.38;5085746;28;19971;-72
2023/12/12 06:27:20;;;;;;;;;;;;;;;4.61;100.00;95816.78;5085806;28;19960;-71
2023/12/12 06:29:48;;;;;;;;;;;;;;;4.62;100.00;95823.59;5085748;28;20127;-72
2023/12/12 06:32:14;;;;;;;;;;;;;;;4.65;100.00;95817.22;5085734;28;19962;-73
2023/12/12 06:34:40;;;;;;;;;;;;;;;4.66;100.00;95811.00;5085223;28;20003;-71
2023/12/12 06:37:05;;;;;;;;;;;;;;;4.68;100.00;95809.00;5085132;28;20002;-70
2023/12/12 06:39:31;;;;;;;;;;;;;;;4.69;100.00;95813.22;5084665;28;20260;-71
2023/12/12 06:41:58;;;;;;;;;;;;;;;4.74;100.00;95812.63;5085075;28;20013;-71
2023/12/12 06:44:24;;;;;;;;;;;;;;;4.74;100.00;95807.44;5085358;28;19976;-71
2023/12/12 06:46:49;;;;;;;;;;;;;;;4.77;100.00;95794.06;5085011;28;19960;-71
2023/12/12 06:49:15;;;;;;;;;;;;;;;4.80;100.00;95780.69;5085255;28;20043;-74
2023/12/12 06:51:41;;;;;;;;;;;;;;;4.82;100.00;95789.06;5085192;28;20266;-73
2023/12/12 06:54:07;;;;;;;;;;;;;;;4.85;100.00;95793.84;5085297;28;19956;-70
2023/12/12 06:56:33;;;;;;;;;;;;;;;4.87;100.00;95800.47;5083524;28;19959;-71
2023/12/12 06:59:01;;;;;;;;;;;;;;;4.92;100.00;95799.09;5084130;28;20244;-71
2023/12/12 07:01:26;;;;;;;;;;;;;;;4.99;100.00;95792.88;5084914;28;19949;-71
2023/12/12 07:03:52;;;;;;;;;;;;;;;5.06;100.00;95800.69;5082736;28;19967;-72
2023/12/12 07:06:21;;;;;;;;;;;;;;;5.11;100.00;95811.28;5084750;28;19959;-72
2023/12/12 07:08:47;;;;;;;;;;;;;;;5.14;100.00;95807.50;5084474;28;19969;-73
2023/12/12 07:11:14;;;;;;;;;;;;;;;5.13;100.00;95817.09;5084961;28;19952;-72
2023/12/12 07:13:40;;;;;;;;;;;;;;;5.08;100.00;95820.28;5084171;28;19958;-72
2023/12/12 07:16:06;;;;;;;;;;;;;;;5.06;100.00;95822.28;5084456;28;20027;-72
2023/12/12 07:18:32;;;;;;;;;;;;;;;5.05;100.00;95823.28;5083075;28;19966;-72
2023/12/12 07:20:58;;;;;;;;;;;;;;;5.06;100.00;95822.28;5084507;28;19952;-72
2023/12/12 07:23:24;;;;;;;;;;;;;;;5.07;100.00;95820.47;5084540;28;20008;-71
2023/12/12 07:25:50;;;;;;;;;;;;;;;5.07;100.00;95813.47;5083014;28;19969;-74
2023/12/12 07:28:16;;;;;;;;;;;;;;;5.08;100.00;95806.47;5084499;28;20026;-71
2023/12/12 07:30:42;;;;;;;;;;;;;;;5.08;100.00;95804.69;5083527;28;19975;-72
2023/12/12 07:33:08;;;;;;;;;;;;;;;5.13;100.00;95816.31;5084615;28;20233;-71
2023/12/12 07:35:35;;;;;;;;;;;;;;;5.14;100.00;95797.88;5084546;28;20227;-72
2023/12/12 07:38:01;;;;;;;;;;;;;;;5.16;100.00;95795.09;5083959;28;20004;-72
2023/12/12 07:40:30;;;;;;;;;;;;;;;5.17;100.00;95792.31;5084004;28;19952;-71
2023/12/12 07:42:56;;;;;;;;;;;;;;;5.18;100.00;95783.50;5082844;28;20261;-72
2023/12/12 07:45:22;;;;;;;;;;;;;;;5.20;100.00;95789.28;5084063;28;19960;-73
2023/12/12 07:47:48;;;;;;;;;;;;;;;5.24;100.00;95794.91;5082733;28;19966;-69
2023/12/12 07:50:16;;;;;;;;;;;;;;;5.25;100.00;95804.31;5084268;28;19960;-69
2023/12/12 07:52:42;;;;;;;;;;;;;;;5.26;100.00;95792.91;5084188;28;19960;-70
2023/12/12 07:55:08;;;;;;;;;;;;;;;5.28;100.00;95794.28;5084356;28;20147;-69
2023/12/12 07:57:34;;;;;;;;;;;;;;;5.32;100.00;95784.31;5084165;28;19960;-69
2023/12/12 08:00:00;;;;;;;;;;;;;;;5.34;100.00;95790.09;5084171;28;19981;-69
2023/12/12 08:02:26;;;;;;;;;;;;;;;5.38;100.00;95782.72;5084140;28;19986;-70
2023/12/12 08:04:51;;;;;;;;;;;;;;;5.41;100.00;95782.28;5084265;28;20164;-71
2023/12/12 08:07:17;;;;;;;;;;;;;;;5.42;100.00;95771.69;5084097;28;19964;-70
2023/12/12 08:09:43;;;;;;;;;;;;;;;5.43;100.00;95767.28;5083715;28;19972;-70
2023/12/12 08:12:09;;;;;;;;;;;;;;;5.45;100.00;95760.88;5083560;28;19962;-69
2023/12/12 08:14:35;;;;;;;;;;;;;;;5.46;100.00;95753.91;5066719;28;20011;-70
2023/12/12 08:17:00;;;;;;;;;;;;;;;5.46;100.00;95764.31;5088269;28;19966;-69
2023/12/12 08:19:26;;;;;;;;;;;;;;;5.47;100.00;95753.69;5088144;28;19960;-70
2023/12/12 08:21:52;;;;;;;;;;;;;;;5.46;100.00;95748.69;5088082;28;20299;-74
2023/12/12 08:24:18;;;;;;;;;;;;;;;5.46;100.00;95752.09;5086705;28;19963;-71
2023/12/12 08:26:46;;;;;;;;;;;;;;;5.47;100.00;95742.50;5088024;28;19957;-72
2023/12/12 08:29:13;;;;;;;;;;;;;;;5.48;100.00;95737.09;5087963;28;19940;-71
2023/12/12 08:31:39;;;;;;;;;;;;;;;5.53;100.00;95725.28;5087744;28;19965;-72
2023/12/12 08:34:05;;;;;;;;;;;;;;;5.57;100.00;95718.66;5087030;28;19972;-71
2023/12/12 08:36:31;;;;;;;;;;;;;;;5.61;100.00;95728.47;5087780;28;19961;-71
2023/12/12 08:38:58;;;;;;;;;;;;;;;5.66;100.00;95730.44;5087345;28;19957;-73
2023/12/12 08:41:28;;;;;;;;;;;;;;;5.69;100.00;95719.63;5085944;28;19964;-71
2023/12/12 08:43:54;;;;;;;;;;;;;;;5.73;100.00;95715.59;5087248;28;19965;-74
2023/12/12 08:46:26;;;;;;;;;;;;;;;5.75;100.00;95718.00;5086218;28;20135;-73
2023/12/12 08:48:56;;;;;;;;;;;;;;;5.77;100.00;95718.59;5087538;28;19960;-73
2023/12/12 08:51:22;;;;;;;;;;;;;;;5.74;100.00;95708.63;5086874;28;19965;-73
2023/12/12 08:53:49;;;;;;;;;;;;;;;5.73;100.00;95709.59;5087306;28;19979;-73
2023/12/12 08:56:16;;;;;;;;;;;;;;;5.73;100.00;95714.81;5086358;28;19946;-73
2023/12/12 08:58:45;;;;;;;;;;;;;;;5.73;100.00;95725.22;5087353;28;20245;-72
2023/12/12 09:01:11;;;;;;;;;;;;;;;5.73;100.00;95725.22;5086814;28;20046;-71
2023/12/12 09:03:37;;;;;;;;;;;;;;;5.71;100.00;95722.81;5086904;28;20023;-71
2023/12/12 09:06:04;;;;;;;;;;;;;;;5.69;100.00;95727.41;5087005;28;19967;-71
2023/12/12 09:08:29;;;;;;;;;;;;;;;5.70;100.00;95736.84;5086932;28;19972;-71
2023/12/12 09:10:55;;;;;;;;;;;;;;;5.70;100.00;95742.03;5087059;28;19959;-71
2023/12/12 09:13:22;;;;;;;;;;;;;;;5.69;100.00;95746.44;5086966;28;19963;-71
2023/12/12 09:15:48;;;;;;;;;;;;;;;5.69;100.00;95743.03;5087060;28;19982;-71
2023/12/12 09:18:15;;;;;;;;;;;;;;;5.66;100.00;95754.66;5086951;28;20269;-70
2023/12/12 09:20:41;;;;;;;;;;;;;;;5.64;100.00;95753.25;5085274;28;19964;-76
2023/12/12 09:23:07;;;;;;;;;;;;;;;5.64;100.00;95748.06;5085441;28;19961;-76
2023/12/12 09:25:33;;;;;;;;;;;;;;;5.64;100.00;95743.66;5086844;28;20371;-77
2023/12/12 09:27:58;;;;;;;;;;;;;;;5.65;100.00;95740.06;5084861;28;20014;-77
2023/12/12 09:30:24;;;;;;;;;;;;;;;5.66;100.00;95740.84;5086625;28;19960;-76
2023/12/12 09:32:50;;;;;;;;;;;;;;;5.65;100.00;95744.47;5086571;28;19950;-77
2023/12/12 09:35:16;;;;;;;;;;;;;;;5.67;100.00;95748.44;5086652;28;20016;-71
2023/12/12 09:37:42;;;;;;;;;;;;;;;5.68;100.00;95749.25;5086392;28;19957;-72
2023/12/12 09:40:09;;;;;;;;;;;;;;;5.68;100.00;95738.84;5086788;28;19970;-71
2023/12/12 09:42:35;;;;;;;;;;;;;;;5.70;100.00;95729.03;5086542;28;19964;-72
2023/12/12 09:45:04;;;;;;;;;;;;;;;5.69;100.00;95717.84;5084985;28;20020;-71
2023/12/12 09:47:30;;;;;;;;;;;;;;;5.69;100.00;95707.44;5087176;28;19960;-71
2023/12/12 09:49:58;;;;;;;;;;;;;;;5.70;100.00;95703.81;5086482;28;19959;-71
2023/12/12 09:52:29;;;;;;;;;;;;;;;5.70;100.00;95693.41;5084822;28;19972;-72
2023/12/12 09:54:57;;;;;;;;;;;;;;;5.73;100.00;95694.00;5085117;28;19954;-69
2023/12/12 09:57:24;;;;;;;;;;;;;;;5.73;100.00;95696.59;5085923;28;20006;-74
2023/12/12 09:59:50;;;;;;;;;;;;;;;5.75;100.00;95692.00;5085043;28;19966;-74
2023/12/12 10:02:19;;;;;;;;;;;;;;;5.78;100.00;95694.19;5085185;28;20143;-74
2023/12/12 10:04:45;;;;;;;;;;;;;;;5.80;100.00;95703.38;5086052;28;20177;-74
2023/12/12 10:07:13;;;;;;;;;;;;;;;5.80;100.00;95682.56;5086183;28;20098;-74
2023/12/12 10:09:39;;;;;;;;;;;;;;;5.82;100.00;95680.56;5085823;28;19957;-76
2023/12/12 10:12:05;;;;;;;;;;;;;;;5.84;100.00;95682.97;5085974;28;20137;-74
2023/12/12 10:14:34;;;;;;;;;;;;;;;5.85;100.00;95684.56;5085965;28;20272;-77
2023/12/12 10:17:02;;;;;;;;;;;;;;;5.87;100.00;95693.75;5085893;28;19955;-78
2023/12/12 10:19:28;;;;;;;;;;;;;;;5.86;100.00;95680.97;5084149;28;19948;-78
2023/12/12 10:21:54;;;;;;;;;;;;;;;5.86;100.00;95675.75;5084768;28;19979;-79
2023/12/12 10:24:26;;;;;;;;;;;;;;;5.83;100.00;95665.75;5084624;28;20145;-79
2023/12/12 10:26:52;;;;;;;;;;;;;;;5.82;100.00;95666.75;5085778;28;19960;-79
2023/12/12 10:29:21;;;;;;;;;;;;;;;5.82;100.00;95667.56;5085408;28;19958;-74
2023/12/12 10:31:47;;;;;;;;;;;;;;;5.84;100.00;95670.75;5085462;28;20241;-75
2023/12/12 10:34:13;;;;;;;;;;;;;;;5.84;100.00;95672.56;5084744;28;19957;-75
2023/12/12 10:36:42;;;;;;;;;;;;;;;5.84;100.00;95660.34;5085508;28;19951;-75
2023/12/12 10:39:12;;;;;;;;;;;;;;;5.85;100.00;95650.72;5085421;28;19954;-75
2023/12/12 10:41:38;;;;;;;;;;;;;;;5.86;100.00;95642.72;5085597;28;19961;-74
2023/12/12 10:44:08;;;;;;;;;;;;;;;5.86;100.00;95629.72;5085331;28;20226;-75
2023/12/12 10:46:39;;;;;;;;;;;;;;;5.87;100.00;95622.69;5085137;28;19991;-75
2023/12/12 10:49:07;;;;;;;;;;;;;;;5.87;100.00;95609.69;5085294;28;20138;-74
2023/12/12 10:51:33;;;;;;;;;;;;;;;5.91;100.00;95590.06;5083996;28;19957;-74
2023/12/12 10:54:00;;;;;;;;;;;;;;;5.96;100.00;95592.03;5085113;28;19955;-74
2023/12/12 10:56:28;;;;;;;;;;;;;;;6.02;100.00;95594.59;5085085;28;19961;-73
2023/12/12 10:58:54;;;;;;;;;;;;;;;6.09;100.00;95594.59;5083734;28;20146;-73
2023/12/12 11:01:21;;;;;;;;;;;;;;;6.15;100.00;95596.31;5084863;28;20003;-73
2023/12/12 11:03:50;;;;;;;;;;;;;;;6.22;100.00;95596.31;5085046;28;19951;-73
2023/12/12 11:06:17;;;;;;;;;;;;;;;6.28;100.00;95575.41;5084910;28;20240;-71
2023/12/12 11:08:46;;;;;;;;;;;;;;;6.38;100.00;95571.53;5084849;28;19954;-72
2023/12/12 11:11:13;;;;;;;;;;;;;;;6.47;100.00;95570.28;5084549;28;19941;-71
2023/12/12 11:13:41;;;;;;;;;;;;;;;6.54;100.00;95560.59;5084995;28;19969;-70
2023/12/12 11:16:08;;;;;;;;;;;;;;;6.59;100.00;95547.69;5084812;28;19958;-71
2023/12/12 11:18:37;;;;;;;;;;;;;;;6.64;100.00;95547.09;5084653;28;20231;-71
2023/12/12 11:21:03;;;;;;;;;;;;;;;6.68;100.00;95549.03;5084622;28;20149;-71
2023/12/12 11:23:42;;;;;;;;;;;;;;;6.73;100.00;95537.97;5084475;28;19958;-71
2023/12/12 11:26:08;;;;;;;;;;;;;;;6.77;100.00;95528.69;5084348;28;19962;-70
2023/12/12 11:28:36;;;;;;;;;;;;;;;6.80;100.00;95522.25;5084562;28;19961;-70
2023/12/12 11:31:02;;;;;;;;;;;;;;;6.84;100.00;95513.78;5084138;28;19979;-70
2023/12/12 11:33:28;;;;;;;;;;;;;;;6.89;100.00;95513.16;5084528;28;20231;-70
2023/12/12 11:35:54;;;;;;;;;;;;;;;6.88;100.00;95512.34;5084503;28;20174;-70
2023/12/12 11:38:30;;;;;;;;;;;;;;;6.84;100.00;95513.00;5084625;28;19968;-70
2023/12/12 11:41:09;;;;;;;;;;;;;;;6.82;100.00;95505.38;5084211;28;20140;-70
2023/12/12 11:43:36;;;;;;;;;;;;;;;6.80;100.00;95496.19;5084431;28;19959;-71
2023/12/12 11:46:18;;;;;;;;;;;;;;;6.77;100.00;95494.84;5084075;28;20124;-71
2023/12/12 11:48:44;;;;;;;;;;;;;;;6.76;100.00;95482.84;5082870;28;20259;-77
2023/12/12 11:51:28;;;;;;;;;;;;;;;6.79;100.00;95477.16;5084196;28;20136;-77
2023/12/12 11:53:55;;;;;;;;;;;;;;;6.81;100.00;95471.75;5084262;28;19970;-77
2023/12/12 11:56:21;;;;;;;;;;;;;;;6.85;100.00;95465.88;5082639;28;19985;-79
2023/12/12 11:58:50;;;;;;;;;;;;;;;6.87;100.00;95453.44;5083087;28;19955;-78
2023/12/12 12:01:21;;;;;;;;;;;;;;;6.89;100.00;95448.00;5083197;28;19965;-77
2023/12/12 12:03:47;;;;;;;;;;;;;;;6.90;100.00;95441.75;5084378;28;20116;-77
2023/12/12 12:06:13;;;;;;;;;;;;;;;6.91;100.00;95444.16;5083265;28;19976;-72
2023/12/12 12:08:39;;;;;;;;;;;;;;;6.92;100.00;95431.91;5084102;28;19966;-71
2023/12/12 12:11:05;;;;;;;;;;;;;;;6.91;100.00;95423.31;5083048;28;19967;-72
2023/12/12 12:13:38;;;;;;;;;;;;;;;6.93;100.00;95419.69;5084434;28;20019;-72
2023/12/12 12:16:04;;;;;;;;;;;;;;;6.95;100.00;95410.66;5083043;28;20059;-72
2023/12/12 12:18:30;;;;;;;;;;;;;;;6.97;100.00;95397.38;5083049;28;19955;-71
2023/12/12 12:20:57;;;;;;;;;;;;;;;6.97;100.00;95386.94;5083957;28;19942;-76
2023/12/12 12:23:23;;;;;;;;;;;;;;;6.97;100.00;95385.16;5084657;28;19965;-74
2023/12/12 12:25:50;;;;;;;;;;;;;;;6.96;100.00;95369.72;5084244;28;19974;-74
2023/12/12 12:28:16;;;;;;;;;;;;;;;6.97;100.00;95372.13;5083893;28;19967;-73
2023/12/12 12:30:46;;;;;;;;;;;;;;;6.96;100.00;95378.34;5083717;28;20144;-75
2023/12/12 12:33:13;;;;;;;;;;;;;;;6.97;100.00;95372.13;5083907;28;19969;-73
2023/12/12 12:35:51;;;;;;;;;;;;;;;6.95;100.00;95374.16;5083656;28;20316;-73
2023/12/12 12:38:26;;;;;;;;;;;;;;;6.95;100.00;95368.13;5083396;28;19965;-73
2023/12/12 12:40:52;;;;;;;;;;;;;;;6.92;100.00;95361.56;5083868;28;19954;-73
2023/12/12 12:43:19;;;;;;;;;;;;;;;6.93;100.00;95362.34;5084091;28;20153;-72
2023/12/12 12:45:45;;;;;;;;;;;;;;;6.93;100.00;95350.13;5083256;28;19980;-72